sensor_id;sensor_type;location;lat;lon;timestamp;P1;durP1;ratioP1;P2;durP2;ratioP2
2610;SDS011;5612;51.134;17.058;2023-10-13T00:02:08;15.53;;;12.00;;
2610;SDS011;5612;51.134;17.058;2023-10-13T00:04:37;13.80;;;11.23;;
2610;SDS011;5612;51.134;17.058;2023-10-13T00:07:06;11.93;;;10.50;;
2610;SDS011;5612;51.134;17.058;2023-10-13T00:09:38;13.63;;;11.47;;
2610;SDS011;5612;51.134;17.058;2023-10-13T00:12:07;13.10;;;10.00;;
2610;SDS011;5612;51.134;17.058;2023-10-13T00:14:40;16.40;;;11.37;;
2610;SDS011;5612;51.134;17.058;2023-10-13T00:17:12;13.37;;;12.10;;
2610;SDS011;5612;51.134;17.058;2023-10-13T00:19:47;14.60;;;12.10;;
2610;SDS011;5612;51.134;17.058;2023-10-13T00:22:19;13.00;;;11.60;;
2610;SDS011;5612;51.134;17.058;2023-10-13T00:24:51;13.27;;;11.80;;
2610;SDS011;5612;51.134;17.058;2023-10-13T00:27:26;12.43;;;11.33;;
2610;SDS011;5612;51.134;17.058;2023-10-13T00:29:59;12.97;;;11.67;;
2610;SDS011;5612;51.134;17.058;2023-10-13T00:32:49;13.07;;;11.87;;
2610;SDS011;5612;51.134;17.058;2023-10-13T00:35:22;14.37;;;13.07;;
2610;SDS011;5612;51.134;17.058;2023-10-13T00:37:56;14.70;;;13.07;;
2610;SDS011;5612;51.134;17.058;2023-10-13T00:40:32;14.30;;;12.90;;
2610;SDS011;5612;51.134;17.058;2023-10-13T00:43:19;14.67;;;12.73;;
2610;SDS011;5612;51.134;17.058;2023-10-13T00:46:01;14.10;;;12.77;;
2610;SDS011;5612;51.134;17.058;2023-10-13T00:48:40;13.57;;;12.37;;
2610;SDS011;5612;51.134;17.058;2023-10-13T00:51:12;16.43;;;14.60;;
2610;SDS011;5612;51.134;17.058;2023-10-13T00:53:59;20.83;;;15.23;;
2610;SDS011;5612;51.134;17.058;2023-10-13T00:56:36;15.07;;;13.40;;
2610;SDS011;5612;51.134;17.058;2023-10-13T00:59:13;16.23;;;14.53;;
2610;SDS011;5612;51.134;17.058;2023-10-13T01:01:42;14.70;;;13.40;;
2610;SDS011;5612;51.134;17.058;2023-10-13T01:04:11;22.57;;;15.83;;
2610;SDS011;5612;51.134;17.058;2023-10-13T01:06:40;15.40;;;13.70;;
2610;SDS011;5612;51.134;17.058;2023-10-13T01:09:09;16.40;;;14.60;;
2610;SDS011;5612;51.134;17.058;2023-10-13T01:11:41;15.03;;;13.57;;
2610;SDS011;5612;51.134;17.058;2023-10-13T01:14:11;14.83;;;13.40;;
2610;SDS011;5612;51.134;17.058;2023-10-13T01:16:41;17.97;;;13.13;;
2610;SDS011;5612;51.134;17.058;2023-10-13T01:19:12;16.57;;;14.87;;
2610;SDS011;5612;51.134;17.058;2023-10-13T01:21:40;18.67;;;14.33;;
2610;SDS011;5612;51.134;17.058;2023-10-13T01:24:13;14.90;;;13.50;;
2610;SDS011;5612;51.134;17.058;2023-10-13T01:26:45;17.60;;;15.13;;
2610;SDS011;5612;51.134;17.058;2023-10-13T01:29:18;16.63;;;15.00;;
2610;SDS011;5612;51.134;17.058;2023-10-13T01:31:46;15.53;;;13.93;;
2610;SDS011;5612;51.134;17.058;2023-10-13T01:34:15;14.57;;;12.57;;
2610;SDS011;5612;51.134;17.058;2023-10-13T01:36:49;16.33;;;14.63;;
2610;SDS011;5612;51.134;17.058;2023-10-13T01:39:21;14.80;;;13.50;;
2610;SDS011;5612;51.134;17.058;2023-10-13T01:41:53;16.17;;;13.13;;
2610;SDS011;5612;51.134;17.058;2023-10-13T01:44:23;20.70;;;15.10;;
2610;SDS011;5612;51.134;17.058;2023-10-13T01:46:54;15.50;;;14.00;;
2610;SDS011;5612;51.134;17.058;2023-10-13T01:49:22;17.07;;;15.40;;
2610;SDS011;5612;51.134;17.058;2023-10-13T01:51:51;17.10;;;15.50;;
2610;SDS011;5612;51.134;17.058;2023-10-13T01:54:20;16.57;;;14.27;;
2610;SDS011;5612;51.134;17.058;2023-10-13T01:56:49;15.50;;;14.00;;
2610;SDS011;5612;51.134;17.058;2023-10-13T01:59:17;16.33;;;14.70;;
2610;SDS011;5612;51.134;17.058;2023-10-13T02:01:46;21.17;;;15.63;;
2610;SDS011;5612;51.134;17.058;2023-10-13T02:04:14;21.03;;;14.03;;
2610;SDS011;5612;51.134;17.058;2023-10-13T02:06:48;16.20;;;14.50;;
2610;SDS011;5612;51.134;17.058;2023-10-13T02:09:16;16.00;;;14.43;;
2610;SDS011;5612;51.134;17.058;2023-10-13T02:11:53;21.70;;;15.07;;
2610;SDS011;5612;51.134;17.058;2023-10-13T02:14:21;17.33;;;14.00;;
2610;SDS011;5612;51.134;17.058;2023-10-13T02:16:52;20.43;;;15.30;;
2610;SDS011;5612;51.134;17.058;2023-10-13T02:19:39;20.50;;;16.27;;
2610;SDS011;5612;51.134;17.058;2023-10-13T02:22:12;16.73;;;13.57;;
2610;SDS011;5612;51.134;17.058;2023-10-13T02:24:55;15.57;;;14.00;;
2610;SDS011;5612;51.134;17.058;2023-10-13T02:27:30;19.67;;;14.23;;
2610;SDS011;5612;51.134;17.058;2023-10-13T02:30:07;19.83;;;15.97;;
2610;SDS011;5612;51.134;17.058;2023-10-13T02:32:41;19.77;;;14.00;;
2610;SDS011;5612;51.134;17.058;2023-10-13T02:35:10;16.87;;;15.13;;
2610;SDS011;5612;51.134;17.058;2023-10-13T02:37:42;16.17;;;14.50;;
2610;SDS011;5612;51.134;17.058;2023-10-13T02:40:11;15.73;;;14.03;;
2610;SDS011;5612;51.134;17.058;2023-10-13T02:42:41;15.83;;;14.17;;
2610;SDS011;5612;51.134;17.058;2023-10-13T02:45:09;16.30;;;14.80;;
2610;SDS011;5612;51.134;17.058;2023-10-13T02:47:39;17.60;;;13.97;;
2610;SDS011;5612;51.134;17.058;2023-10-13T02:50:10;16.30;;;14.33;;
2610;SDS011;5612;51.134;17.058;2023-10-13T02:52:39;22.00;;;13.60;;
2610;SDS011;5612;51.134;17.058;2023-10-13T02:55:08;16.80;;;13.93;;
2610;SDS011;5612;51.134;17.058;2023-10-13T02:57:43;16.07;;;14.37;;
2610;SDS011;5612;51.134;17.058;2023-10-13T03:00:12;15.97;;;14.27;;
2610;SDS011;5612;51.134;17.058;2023-10-13T03:02:42;16.00;;;14.37;;
2610;SDS011;5612;51.134;17.058;2023-10-13T03:05:22;14.33;;;12.93;;
2610;SDS011;5612;51.134;17.058;2023-10-13T03:07:50;15.70;;;13.97;;
2610;SDS011;5612;51.134;17.058;2023-10-13T03:10:19;16.10;;;14.40;;
2610;SDS011;5612;51.134;17.058;2023-10-13T03:12:49;15.77;;;13.50;;
2610;SDS011;5612;51.134;17.058;2023-10-13T03:15:18;16.03;;;14.33;;
2610;SDS011;5612;51.134;17.058;2023-10-13T03:17:47;15.57;;;14.00;;
2610;SDS011;5612;51.134;17.058;2023-10-13T03:20:17;15.47;;;13.90;;
2610;SDS011;5612;51.134;17.058;2023-10-13T03:22:52;16.53;;;13.73;;
2610;SDS011;5612;51.134;17.058;2023-10-13T03:25:21;15.40;;;13.97;;
2610;SDS011;5612;51.134;17.058;2023-10-13T03:27:52;16.77;;;14.97;;
2610;SDS011;5612;51.134;17.058;2023-10-13T03:30:32;16.00;;;14.10;;
2610;SDS011;5612;51.134;17.058;2023-10-13T03:33:09;15.43;;;14.03;;
2610;SDS011;5612;51.134;17.058;2023-10-13T03:35:41;15.90;;;13.73;;
2610;SDS011;5612;51.134;17.058;2023-10-13T03:38:12;16.47;;;14.73;;
2610;SDS011;5612;51.134;17.058;2023-10-13T03:40:45;15.37;;;13.80;;
2610;SDS011;5612;51.134;17.058;2023-10-13T03:43:24;18.90;;;15.40;;
2610;SDS011;5612;51.134;17.058;2023-10-13T03:45:58;16.73;;;15.03;;
2610;SDS011;5612;51.134;17.058;2023-10-13T03:48:35;14.17;;;12.80;;
2610;SDS011;5612;51.134;17.058;2023-10-13T03:51:19;15.10;;;13.70;;
2610;SDS011;5612;51.134;17.058;2023-10-13T03:53:48;13.80;;;12.60;;
2610;SDS011;5612;51.134;17.058;2023-10-13T03:56:21;14.40;;;12.80;;
2610;SDS011;5612;51.134;17.058;2023-10-13T03:59:00;14.67;;;13.37;;
2610;SDS011;5612;51.134;17.058;2023-10-13T04:01:33;15.30;;;13.70;;
2610;SDS011;5612;51.134;17.058;2023-10-13T04:04:13;16.23;;;14.60;;
2610;SDS011;5612;51.134;17.058;2023-10-13T04:07:01;16.17;;;14.50;;
2610;SDS011;5612;51.134;17.058;2023-10-13T04:09:54;15.40;;;14.00;;
2610;SDS011;5612;51.134;17.058;2023-10-13T04:12:36;16.13;;;14.67;;
2610;SDS011;5612;51.134;17.058;2023-10-13T04:15:23;17.10;;;15.60;;
2610;SDS011;5612;51.134;17.058;2023-10-13T04:18:04;18.53;;;16.70;;
2610;SDS011;5612;51.134;17.058;2023-10-13T04:20:52;15.17;;;13.63;;
2610;SDS011;5612;51.134;17.058;2023-10-13T04:23:34;14.60;;;13.13;;
2610;SDS011;5612;51.134;17.058;2023-10-13T04:26:25;16.00;;;13.73;;
2610;SDS011;5612;51.134;17.058;2023-10-13T04:29:03;16.80;;;15.17;;
2610;SDS011;5612;51.134;17.058;2023-10-13T04:31:38;16.60;;;14.80;;
2610;SDS011;5612;51.134;17.058;2023-10-13T04:34:26;20.23;;;15.73;;
2610;SDS011;5612;51.134;17.058;2023-10-13T04:37:05;16.53;;;14.93;;
2610;SDS011;5612;51.134;17.058;2023-10-13T04:39:55;19.90;;;17.97;;
2610;SDS011;5612;51.134;17.058;2023-10-13T04:42:26;20.70;;;18.50;;
2610;SDS011;5612;51.134;17.058;2023-10-13T04:45:17;17.33;;;15.53;;
2610;SDS011;5612;51.134;17.058;2023-10-13T04:48:07;18.80;;;16.93;;
2610;SDS011;5612;51.134;17.058;2023-10-13T04:50:45;20.47;;;18.17;;
2610;SDS011;5612;51.134;17.058;2023-10-13T04:53:17;19.10;;;17.23;;
2610;SDS011;5612;51.134;17.058;2023-10-13T04:56:00;21.00;;;19.00;;
2610;SDS011;5612;51.134;17.058;2023-10-13T04:58:42;21.73;;;19.57;;
2610;SDS011;5612;51.134;17.058;2023-10-13T05:01:28;21.47;;;19.47;;
2610;SDS011;5612;51.134;17.058;2023-10-13T05:04:15;20.63;;;18.53;;
2610;SDS011;5612;51.134;17.058;2023-10-13T05:07:05;21.13;;;19.23;;
2610;SDS011;5612;51.134;17.058;2023-10-13T05:09:51;20.13;;;18.20;;
2610;SDS011;5612;51.134;17.058;2023-10-13T05:12:38;20.13;;;18.17;;
2610;SDS011;5612;51.134;17.058;2023-10-13T05:15:27;24.50;;;19.87;;
2610;SDS011;5612;51.134;17.058;2023-10-13T05:18:14;19.70;;;17.80;;
2610;SDS011;5612;51.134;17.058;2023-10-13T05:21:02;22.13;;;18.23;;
2610;SDS011;5612;51.134;17.058;2023-10-13T05:23:48;19.13;;;17.23;;
2610;SDS011;5612;51.134;17.058;2023-10-13T05:26:34;18.50;;;16.80;;
2610;SDS011;5612;51.134;17.058;2023-10-13T05:29:20;19.87;;;17.80;;
2610;SDS011;5612;51.134;17.058;2023-10-13T05:32:06;20.90;;;17.87;;
2610;SDS011;5612;51.134;17.058;2023-10-13T05:34:53;20.70;;;17.53;;
2610;SDS011;5612;51.134;17.058;2023-10-13T05:37:40;21.33;;;19.23;;
2610;SDS011;5612;51.134;17.058;2023-10-13T05:40:27;18.83;;;16.30;;
2610;SDS011;5612;51.134;17.058;2023-10-13T05:43:13;19.63;;;17.03;;
2610;SDS011;5612;51.134;17.058;2023-10-13T05:46:00;20.57;;;18.47;;
2610;SDS011;5612;51.134;17.058;2023-10-13T05:48:44;19.00;;;17.20;;
2610;SDS011;5612;51.134;17.058;2023-10-13T05:51:26;20.87;;;18.73;;
2610;SDS011;5612;51.134;17.058;2023-10-13T05:54:15;20.93;;;17.20;;
2610;SDS011;5612;51.134;17.058;2023-10-13T05:57:01;20.07;;;17.97;;
2610;SDS011;5612;51.134;17.058;2023-10-13T05:59:48;26.73;;;17.27;;
2610;SDS011;5612;51.134;17.058;2023-10-13T06:02:35;17.43;;;15.63;;
2610;SDS011;5612;51.134;17.058;2023-10-13T06:05:22;19.27;;;17.23;;
2610;SDS011;5612;51.134;17.058;2023-10-13T06:08:08;18.63;;;16.73;;
2610;SDS011;5612;51.134;17.058;2023-10-13T06:11:03;20.37;;;18.27;;
2610;SDS011;5612;51.134;17.058;2023-10-13T06:13:50;19.23;;;17.43;;
2610;SDS011;5612;51.134;17.058;2023-10-13T06:16:36;18.43;;;16.57;;
2610;SDS011;5612;51.134;17.058;2023-10-13T06:19:23;17.73;;;15.90;;
2610;SDS011;5612;51.134;17.058;2023-10-13T06:22:09;18.63;;;15.30;;
2610;SDS011;5612;51.134;17.058;2023-10-13T06:24:55;20.63;;;18.60;;
2610;SDS011;5612;51.134;17.058;2023-10-13T06:27:43;18.67;;;16.97;;
2610;SDS011;5612;51.134;17.058;2023-10-13T06:30:37;18.43;;;16.50;;
2610;SDS011;5612;51.134;17.058;2023-10-13T06:33:07;20.97;;;18.77;;
2610;SDS011;5612;51.134;17.058;2023-10-13T06:35:38;23.37;;;19.30;;
2610;SDS011;5612;51.134;17.058;2023-10-13T06:38:07;19.67;;;17.77;;
2610;SDS011;5612;51.134;17.058;2023-10-13T06:40:47;22.37;;;19.00;;
2610;SDS011;5612;51.134;17.058;2023-10-13T06:43:19;21.53;;;19.23;;
2610;SDS011;5612;51.134;17.058;2023-10-13T06:45:53;22.10;;;19.10;;
2610;SDS011;5612;51.134;17.058;2023-10-13T06:48:27;21.60;;;19.37;;
2610;SDS011;5612;51.134;17.058;2023-10-13T06:51:00;20.63;;;18.43;;
2610;SDS011;5612;51.134;17.058;2023-10-13T06:53:33;25.00;;;19.27;;
2610;SDS011;5612;51.134;17.058;2023-10-13T06:56:06;20.57;;;18.47;;
2610;SDS011;5612;51.134;17.058;2023-10-13T06:58:37;20.63;;;18.63;;
2610;SDS011;5612;51.134;17.058;2023-10-13T07:01:09;19.13;;;17.37;;
2610;SDS011;5612;51.134;17.058;2023-10-13T07:03:42;22.07;;;17.70;;
2610;SDS011;5612;51.134;17.058;2023-10-13T07:06:16;20.83;;;18.70;;
2610;SDS011;5612;51.134;17.058;2023-10-13T07:08:46;19.57;;;17.57;;
2610;SDS011;5612;51.134;17.058;2023-10-13T07:11:18;18.60;;;16.73;;
2610;SDS011;5612;51.134;17.058;2023-10-13T07:14:03;19.90;;;16.17;;
2610;SDS011;5612;51.134;17.058;2023-10-13T07:16:42;18.00;;;14.50;;
2610;SDS011;5612;51.134;17.058;2023-10-13T07:19:13;16.43;;;13.83;;
2610;SDS011;5612;51.134;17.058;2023-10-13T07:21:48;15.60;;;13.10;;
2610;SDS011;5612;51.134;17.058;2023-10-13T07:24:25;15.03;;;13.67;;
2610;SDS011;5612;51.134;17.058;2023-10-13T07:27:02;13.93;;;12.80;;
2610;SDS011;5612;51.134;17.058;2023-10-13T07:29:34;13.13;;;11.87;;
2610;SDS011;5612;51.134;17.058;2023-10-13T07:32:03;14.07;;;12.87;;
2610;SDS011;5612;51.134;17.058;2023-10-13T07:34:39;14.80;;;13.70;;
2610;SDS011;5612;51.134;17.058;2023-10-13T07:37:08;14.23;;;12.40;;
2610;SDS011;5612;51.134;17.058;2023-10-13T07:39:39;14.67;;;13.47;;
2610;SDS011;5612;51.134;17.058;2023-10-13T07:42:09;14.07;;;12.70;;
2610;SDS011;5612;51.134;17.058;2023-10-13T07:44:47;13.80;;;12.50;;
2610;SDS011;5612;51.134;17.058;2023-10-13T07:47:16;17.70;;;11.27;;
2610;SDS011;5612;51.134;17.058;2023-10-13T07:49:47;16.07;;;12.33;;
2610;SDS011;5612;51.134;17.058;2023-10-13T07:52:17;11.40;;;10.50;;
2610;SDS011;5612;51.134;17.058;2023-10-13T07:55:03;13.47;;;12.10;;
2610;SDS011;5612;51.134;17.058;2023-10-13T07:57:47;12.50;;;11.20;;
2610;SDS011;5612;51.134;17.058;2023-10-13T08:00:23;13.10;;;11.97;;
2610;SDS011;5612;51.134;17.058;2023-10-13T08:02:56;12.00;;;10.90;;
2610;SDS011;5612;51.134;17.058;2023-10-13T08:05:36;13.50;;;12.27;;
2610;SDS011;5612;51.134;17.058;2023-10-13T08:08:22;13.00;;;11.97;;
2610;SDS011;5612;51.134;17.058;2023-10-13T08:10:53;13.00;;;11.80;;
2610;SDS011;5612;51.134;17.058;2023-10-13T08:13:35;10.63;;;9.83;;
2610;SDS011;5612;51.134;17.058;2023-10-13T08:16:22;12.60;;;11.40;;
2610;SDS011;5612;51.134;17.058;2023-10-13T08:18:57;11.43;;;10.50;;
2610;SDS011;5612;51.134;17.058;2023-10-13T08:21:28;10.67;;;9.73;;
2610;SDS011;5612;51.134;17.058;2023-10-13T08:24:00;11.33;;;9.90;;
2610;SDS011;5612;51.134;17.058;2023-10-13T08:26:34;11.23;;;10.23;;
2610;SDS011;5612;51.134;17.058;2023-10-13T08:29:20;12.60;;;10.27;;
2610;SDS011;5612;51.134;17.058;2023-10-13T08:32:13;10.83;;;9.93;;
2610;SDS011;5612;51.134;17.058;2023-10-13T08:34:49;10.88;;;9.98;;
2610;SDS011;5612;51.134;17.058;2023-10-13T08:37:35;10.43;;;9.38;;
2610;SDS011;5612;51.134;17.058;2023-10-13T08:40:37;10.35;;;9.45;;
2610;SDS011;5612;51.134;17.058;2023-10-13T08:43:28;13.98;;;9.90;;
2610;SDS011;5612;51.134;17.058;2023-10-13T08:46:10;10.95;;;9.95;;
2610;SDS011;5612;51.134;17.058;2023-10-13T08:48:57;11.10;;;10.35;;
2610;SDS011;5612;51.134;17.058;2023-10-13T08:51:36;10.40;;;9.33;;
2610;SDS011;5612;51.134;17.058;2023-10-13T08:54:13;9.95;;;9.15;;
2610;SDS011;5612;51.134;17.058;2023-10-13T08:57:01;14.87;;;10.07;;
2610;SDS011;5612;51.134;17.058;2023-10-13T08:59:47;10.30;;;9.40;;
2610;SDS011;5612;51.134;17.058;2023-10-13T09:02:22;9.77;;;8.97;;
2610;SDS011;5612;51.134;17.058;2023-10-13T09:05:17;9.90;;;9.00;;
2610;SDS011;5612;51.134;17.058;2023-10-13T09:08:00;10.37;;;9.43;;
2610;SDS011;5612;51.134;17.058;2023-10-13T09:10:36;8.30;;;7.60;;
2610;SDS011;5612;51.134;17.058;2023-10-13T09:13:11;10.50;;;7.93;;
2610;SDS011;5612;51.134;17.058;2023-10-13T09:15:47;9.80;;;9.10;;
2610;SDS011;5612;51.134;17.058;2023-10-13T09:18:28;9.13;;;8.33;;
2610;SDS011;5612;51.134;17.058;2023-10-13T09:21:15;9.03;;;8.30;;
2610;SDS011;5612;51.134;17.058;2023-10-13T09:24:10;10.53;;;9.73;;
2610;SDS011;5612;51.134;17.058;2023-10-13T09:26:59;7.33;;;6.77;;
2610;SDS011;5612;51.134;17.058;2023-10-13T09:29:32;7.23;;;6.73;;
2610;SDS011;5612;51.134;17.058;2023-10-13T09:32:06;8.20;;;7.40;;
2610;SDS011;5612;51.134;17.058;2023-10-13T09:34:39;6.90;;;6.40;;
2610;SDS011;5612;51.134;17.058;2023-10-13T09:37:12;6.77;;;6.13;;
2610;SDS011;5612;51.134;17.058;2023-10-13T09:39:48;8.07;;;7.37;;
2610;SDS011;5612;51.134;17.058;2023-10-13T09:42:21;7.37;;;6.77;;
2610;SDS011;5612;51.134;17.058;2023-10-13T09:44:50;7.23;;;6.53;;
2610;SDS011;5612;51.134;17.058;2023-10-13T09:47:22;7.33;;;6.73;;
2610;SDS011;5612;51.134;17.058;2023-10-13T09:50:05;7.60;;;6.67;;
2610;SDS011;5612;51.134;17.058;2023-10-13T09:52:52;7.93;;;7.23;;
2610;SDS011;5612;51.134;17.058;2023-10-13T09:55:26;6.30;;;5.80;;
2610;SDS011;5612;51.134;17.058;2023-10-13T09:58:01;7.33;;;6.60;;
2610;SDS011;5612;51.134;17.058;2023-10-13T10:00:40;7.20;;;6.70;;
2610;SDS011;5612;51.134;17.058;2023-10-13T10:03:23;11.73;;;7.43;;
2610;SDS011;5612;51.134;17.058;2023-10-13T10:05:57;6.70;;;6.10;;
2610;SDS011;5612;51.134;17.058;2023-10-13T10:08:34;8.03;;;7.23;;
2610;SDS011;5612;51.134;17.058;2023-10-13T10:11:14;7.30;;;6.60;;
2610;SDS011;5612;51.134;17.058;2023-10-13T10:14:14;6.97;;;6.47;;
2610;SDS011;5612;51.134;17.058;2023-10-13T10:16:58;7.03;;;6.60;;
2610;SDS011;5612;51.134;17.058;2023-10-13T10:19:45;6.80;;;6.10;;
2610;SDS011;5612;51.134;17.058;2023-10-13T10:22:24;6.90;;;6.30;;
2610;SDS011;5612;51.134;17.058;2023-10-13T10:25:02;7.10;;;6.50;;
2610;SDS011;5612;51.134;17.058;2023-10-13T10:27:54;6.93;;;6.33;;
2610;SDS011;5612;51.134;17.058;2023-10-13T10:30:24;6.70;;;6.20;;
2610;SDS011;5612;51.134;17.058;2023-10-13T10:32:54;6.67;;;6.00;;
2610;SDS011;5612;51.134;17.058;2023-10-13T10:35:26;5.83;;;5.23;;
2610;SDS011;5612;51.134;17.058;2023-10-13T10:37:56;5.40;;;5.00;;
2610;SDS011;5612;51.134;17.058;2023-10-13T10:40:49;5.80;;;5.40;;
2610;SDS011;5612;51.134;17.058;2023-10-13T10:43:24;6.27;;;5.77;;
2610;SDS011;5612;51.134;17.058;2023-10-13T10:46:03;5.30;;;4.90;;
2610;SDS011;5612;51.134;17.058;2023-10-13T10:48:43;4.70;;;4.30;;
2610;SDS011;5612;51.134;17.058;2023-10-13T10:51:13;5.90;;;5.50;;
2610;SDS011;5612;51.134;17.058;2023-10-13T10:53:49;6.53;;;5.70;;
2610;SDS011;5612;51.134;17.058;2023-10-13T10:56:31;5.75;;;5.35;;
2610;SDS011;5612;51.134;17.058;2023-10-13T10:59:04;6.37;;;5.80;;
2610;SDS011;5612;51.134;17.058;2023-10-13T11:01:42;5.13;;;4.70;;
2610;SDS011;5612;51.134;17.058;2023-10-13T11:04:18;5.33;;;4.93;;
2610;SDS011;5612;51.134;17.058;2023-10-13T11:06:52;4.68;;;4.38;;
2610;SDS011;5612;51.134;17.058;2023-10-13T11:09:25;5.03;;;4.57;;
2610;SDS011;5612;51.134;17.058;2023-10-13T11:12:13;5.53;;;5.03;;
2610;SDS011;5612;51.134;17.058;2023-10-13T11:14:43;5.53;;;5.23;;
2610;SDS011;5612;51.134;17.058;2023-10-13T11:17:20;5.60;;;5.10;;
2610;SDS011;5612;51.134;17.058;2023-10-13T11:19:53;4.30;;;4.10;;
2610;SDS011;5612;51.134;17.058;2023-10-13T11:22:23;5.90;;;5.43;;
2610;SDS011;5612;51.134;17.058;2023-10-13T11:25:00;6.00;;;5.40;;
2610;SDS011;5612;51.134;17.058;2023-10-13T11:27:37;5.70;;;5.13;;
2610;SDS011;5612;51.134;17.058;2023-10-13T11:30:23;5.33;;;4.93;;
2610;SDS011;5612;51.134;17.058;2023-10-13T11:32:57;5.27;;;4.87;;
2610;SDS011;5612;51.134;17.058;2023-10-13T11:35:29;4.60;;;4.20;;
2610;SDS011;5612;51.134;17.058;2023-10-13T11:38:24;4.20;;;3.90;;
2610;SDS011;5612;51.134;17.058;2023-10-13T11:40:56;4.67;;;4.27;;
2610;SDS011;5612;51.134;17.058;2023-10-13T11:43:43;5.40;;;5.00;;
2610;SDS011;5612;51.134;17.058;2023-10-13T11:46:36;5.90;;;5.50;;
2610;SDS011;5612;51.134;17.058;2023-10-13T11:49:31;5.47;;;5.17;;
2610;SDS011;5612;51.134;17.058;2023-10-13T11:52:04;6.17;;;5.67;;
2610;SDS011;5612;51.134;17.058;2023-10-13T11:54:45;5.40;;;4.97;;
2610;SDS011;5612;51.134;17.058;2023-10-13T11:57:14;4.93;;;4.57;;
2610;SDS011;5612;51.134;17.058;2023-10-13T11:59:48;5.97;;;5.47;;
2610;SDS011;5612;51.134;17.058;2023-10-13T12:02:46;6.00;;;5.40;;
2610;SDS011;5612;51.134;17.058;2023-10-13T12:05:40;5.40;;;5.00;;
2610;SDS011;5612;51.134;17.058;2023-10-13T12:08:32;4.60;;;4.20;;
2610;SDS011;5612;51.134;17.058;2023-10-13T12:11:05;5.30;;;4.80;;
2610;SDS011;5612;51.134;17.058;2023-10-13T12:13:49;4.27;;;3.97;;
2610;SDS011;5612;51.134;17.058;2023-10-13T12:16:19;4.17;;;3.00;;
2610;SDS011;5612;51.134;17.058;2023-10-13T12:18:49;3.70;;;3.40;;
2610;SDS011;5612;51.134;17.058;2023-10-13T12:21:20;4.37;;;3.70;;
2610;SDS011;5612;51.134;17.058;2023-10-13T12:23:49;3.70;;;3.40;;
2610;SDS011;5612;51.134;17.058;2023-10-13T12:26:20;4.40;;;3.40;;
2610;SDS011;5612;51.134;17.058;2023-10-13T12:28:59;3.53;;;3.23;;
2610;SDS011;5612;51.134;17.058;2023-10-13T12:31:35;4.23;;;3.83;;
2610;SDS011;5612;51.134;17.058;2023-10-13T12:34:06;5.60;;;3.50;;
2610;SDS011;5612;51.134;17.058;2023-10-13T12:36:45;5.60;;;4.07;;
2610;SDS011;5612;51.134;17.058;2023-10-13T12:39:32;3.60;;;3.40;;
2610;SDS011;5612;51.134;17.058;2023-10-13T12:42:33;5.80;;;3.37;;
2610;SDS011;5612;51.134;17.058;2023-10-13T12:45:18;4.00;;;3.80;;
2610;SDS011;5612;51.134;17.058;2023-10-13T12:48:11;4.30;;;4.00;;
2610;SDS011;5612;51.134;17.058;2023-10-13T12:51:00;6.00;;;4.07;;
2610;SDS011;5612;51.134;17.058;2023-10-13T12:53:47;4.57;;;4.27;;
2610;SDS011;5612;51.134;17.058;2023-10-13T12:56:15;5.00;;;4.50;;
2610;SDS011;5612;51.134;17.058;2023-10-13T12:58:52;8.50;;;4.33;;
2610;SDS011;5612;51.134;17.058;2023-10-13T13:01:23;4.50;;;4.20;;
2610;SDS011;5612;51.134;17.058;2023-10-13T13:04:01;4.90;;;4.40;;
2610;SDS011;5612;51.134;17.058;2023-10-13T13:06:31;4.30;;;3.90;;
2610;SDS011;5612;51.134;17.058;2023-10-13T13:09:00;5.17;;;4.67;;
2610;SDS011;5612;51.134;17.058;2023-10-13T13:11:29;5.07;;;4.60;;
2610;SDS011;5612;51.134;17.058;2023-10-13T13:13:58;4.90;;;4.60;;
2610;SDS011;5612;51.134;17.058;2023-10-13T13:16:27;3.90;;;3.60;;
2610;SDS011;5612;51.134;17.058;2023-10-13T13:18:57;4.20;;;3.80;;
2610;SDS011;5612;51.134;17.058;2023-10-13T13:21:29;4.60;;;4.30;;
2610;SDS011;5612;51.134;17.058;2023-10-13T13:23:58;6.73;;;3.93;;
2610;SDS011;5612;51.134;17.058;2023-10-13T13:26:29;4.87;;;4.37;;
2610;SDS011;5612;51.134;17.058;2023-10-13T13:28:58;5.70;;;4.10;;
2610;SDS011;5612;51.134;17.058;2023-10-13T13:31:27;4.10;;;3.80;;
2610;SDS011;5612;51.134;17.058;2023-10-13T13:33:57;6.23;;;4.60;;
2610;SDS011;5612;51.134;17.058;2023-10-13T13:36:25;4.33;;;3.90;;
2610;SDS011;5612;51.134;17.058;2023-10-13T13:38:56;7.10;;;4.00;;
2610;SDS011;5612;51.134;17.058;2023-10-13T13:41:27;4.47;;;4.07;;
2610;SDS011;5612;51.134;17.058;2023-10-13T13:43:59;5.97;;;4.30;;
2610;SDS011;5612;51.134;17.058;2023-10-13T13:46:40;6.80;;;5.00;;
2610;SDS011;5612;51.134;17.058;2023-10-13T13:49:09;5.40;;;4.27;;
2610;SDS011;5612;51.134;17.058;2023-10-13T13:51:46;4.30;;;4.00;;
2610;SDS011;5612;51.134;17.058;2023-10-13T13:54:20;5.57;;;4.43;;
2610;SDS011;5612;51.134;17.058;2023-10-13T13:56:49;5.07;;;4.57;;
2610;SDS011;5612;51.134;17.058;2023-10-13T13:59:18;5.73;;;4.23;;
2610;SDS011;5612;51.134;17.058;2023-10-13T14:01:47;5.87;;;4.20;;
2610;SDS011;5612;51.134;17.058;2023-10-13T14:04:20;4.87;;;3.93;;
2610;SDS011;5612;51.134;17.058;2023-10-13T14:06:49;4.30;;;3.57;;
2610;SDS011;5612;51.134;17.058;2023-10-13T14:09:20;8.43;;;4.00;;
2610;SDS011;5612;51.134;17.058;2023-10-13T14:12:07;9.80;;;4.83;;
2610;SDS011;5612;51.134;17.058;2023-10-13T14:14:50;4.30;;;3.90;;
2610;SDS011;5612;51.134;17.058;2023-10-13T14:17:22;4.10;;;3.80;;
2610;SDS011;5612;51.134;17.058;2023-10-13T14:19:56;4.60;;;4.20;;
2610;SDS011;5612;51.134;17.058;2023-10-13T14:22:26;6.27;;;4.30;;
2610;SDS011;5612;51.134;17.058;2023-10-13T14:24:56;4.50;;;4.20;;
2610;SDS011;5612;51.134;17.058;2023-10-13T14:27:31;4.80;;;4.00;;
2610;SDS011;5612;51.134;17.058;2023-10-13T14:30:00;4.90;;;4.50;;
2610;SDS011;5612;51.134;17.058;2023-10-13T14:32:29;4.23;;;3.93;;
2610;SDS011;5612;51.134;17.058;2023-10-13T14:34:58;4.30;;;3.53;;
2610;SDS011;5612;51.134;17.058;2023-10-13T14:37:38;4.60;;;4.30;;
2610;SDS011;5612;51.134;17.058;2023-10-13T14:40:09;6.77;;;3.93;;
2610;SDS011;5612;51.134;17.058;2023-10-13T14:42:41;4.33;;;3.90;;
2610;SDS011;5612;51.134;17.058;2023-10-13T14:45:10;4.90;;;4.33;;
2610;SDS011;5612;51.134;17.058;2023-10-13T14:47:40;10.87;;;5.03;;
2610;SDS011;5612;51.134;17.058;2023-10-13T14:50:09;8.50;;;7.70;;
2610;SDS011;5612;51.134;17.058;2023-10-13T14:52:47;8.60;;;4.20;;
2610;SDS011;5612;51.134;17.058;2023-10-13T14:55:18;7.70;;;4.33;;
2610;SDS011;5612;51.134;17.058;2023-10-13T14:57:48;4.93;;;4.53;;
2610;SDS011;5612;51.134;17.058;2023-10-13T15:00:18;10.83;;;9.80;;
2610;SDS011;5612;51.134;17.058;2023-10-13T15:02:52;7.37;;;4.50;;
2610;SDS011;5612;51.134;17.058;2023-10-13T15:05:22;6.03;;;5.43;;
2610;SDS011;5612;51.134;17.058;2023-10-13T15:07:51;5.27;;;4.87;;
2610;SDS011;5612;51.134;17.058;2023-10-13T15:10:22;3.93;;;3.60;;
2610;SDS011;5612;51.134;17.058;2023-10-13T15:12:53;4.70;;;4.30;;
2610;SDS011;5612;51.134;17.058;2023-10-13T15:15:22;4.50;;;3.80;;
2610;SDS011;5612;51.134;17.058;2023-10-13T15:17:51;10.33;;;4.80;;
2610;SDS011;5612;51.134;17.058;2023-10-13T15:20:20;6.30;;;4.23;;
2610;SDS011;5612;51.134;17.058;2023-10-13T15:22:49;5.43;;;4.90;;
2610;SDS011;5612;51.134;17.058;2023-10-13T15:25:28;8.70;;;4.87;;
2610;SDS011;5612;51.134;17.058;2023-10-13T15:28:06;5.23;;;4.43;;
2610;SDS011;5612;51.134;17.058;2023-10-13T15:30:36;5.47;;;4.77;;
2610;SDS011;5612;51.134;17.058;2023-10-13T15:33:19;6.13;;;5.47;;
2610;SDS011;5612;51.134;17.058;2023-10-13T15:35:48;8.27;;;4.70;;
2610;SDS011;5612;51.134;17.058;2023-10-13T15:38:18;7.03;;;5.87;;
2610;SDS011;5612;51.134;17.058;2023-10-13T15:40:50;8.10;;;5.50;;
2610;SDS011;5612;51.134;17.058;2023-10-13T15:43:22;5.93;;;5.43;;